createdAt,value
2023-02-07T09:42:17.712Z,18.30
2023-02-07T09:44:57.216Z,19.20
2023-02-07T09:47:25.018Z,14.20
2023-02-07T09:49:55.485Z,15.20
2023-02-07T09:52:38.877Z,12.70
2023-02-07T09:55:06.133Z,12.00
2023-02-07T09:57:45.282Z,14.30
2023-02-07T10:00:28.860Z,15.10
2023-02-07T10:03:21.550Z,12.40
2023-02-07T10:06:18.909Z,14.80
2023-02-07T10:08:47.357Z,12.40
2023-02-07T10:11:25.030Z,10.90
2023-02-07T10:14:01.646Z,13.00
2023-02-07T10:16:41.313Z,14.10
2023-02-07T10:19:35.346Z,15.10
2023-02-07T10:22:30.117Z,12.40
2023-02-07T10:25:21.893Z,10.60
2023-02-07T10:28:04.043Z,11.80
2023-02-07T10:30:32.476Z,10.20
2023-02-07T10:33:12.291Z,12.20
2023-02-07T10:35:39.380Z,12.60
2023-02-07T10:38:17.674Z,12.50
2023-02-07T10:40:51.202Z,16.10
2023-02-07T10:43:28.499Z,14.00
2023-02-07T10:46:05.556Z,22.50
2023-02-07T10:48:33.209Z,25.00
2023-02-07T10:51:19.474Z,21.20
2023-02-07T10:53:59.733Z,19.50
2023-02-07T10:56:27.285Z,18.70
2023-02-07T10:58:57.646Z,14.60
2023-02-07T11:01:26.569Z,16.70
2023-02-07T11:03:54.054Z,18.50
2023-02-07T11:06:30.502Z,13.40
2023-02-07T11:09:23.004Z,14.20
2023-02-07T11:11:51.935Z,12.20
2023-02-07T11:14:25.837Z,13.20
2023-02-07T11:16:54.233Z,12.90
2023-02-07T11:19:23.880Z,17.70
2023-02-07T11:21:51.904Z,14.30
2023-02-07T11:24:24.975Z,11.90
2023-02-07T11:27:02.352Z,13.00
2023-02-07T11:29:31.144Z,12.60
2023-02-07T11:31:59.332Z,15.30
2023-02-07T11:34:27.772Z,14.20
2023-02-07T11:36:56.165Z,15.10
2023-02-07T11:39:23.043Z,15.80
2023-02-07T11:42:00.425Z,16.80
2023-02-07T11:44:29.840Z,15.40
2023-02-07T11:46:58.804Z,14.80
2023-02-07T11:49:37.680Z,19.00
2023-02-07T11:52:04.893Z,21.20
2023-02-07T11:54:31.896Z,20.20
2023-02-07T11:57:06.587Z,18.80
